Time;durP1;ratioP1;P1;durP2;ratioP2;P2;SDS_P1;SDS_P2;PMS_P1;PMS_P2;Temp;Humidity;BMP_temperature;BMP_pressure;BME280_temperature;BME280_humidity;BME280_pressure;Samples;Min_cycle;Max_cycle;Signal;HPM_P1;HPM_P2
2021/03/14 00:01:21;;;;;;;7.72;1.77;;;;;;;9.15;51.48;100068.31;4959870;28;126091;-70
2021/03/14 00:03:48;;;;;;;6.25;1.92;;;;;;;9.12;51.34;100068.47;4975700;28;109036;-70
2021/03/14 00:06:15;;;;;;;8.15;1.70;;;;;;;9.11;51.71;100076.47;4974154;28;108950;-70
2021/03/14 00:08:42;;;;;;;7.68;1.75;;;;;;;9.08;51.97;100077.47;4975719;28;123789;-70
2021/03/14 00:11:09;;;;;;;7.32;1.90;;;;;;;9.06;51.59;100079.34;4974595;28;123815;-70
2021/03/14 00:13:37;;;;;;;9.90;1.77;;;;;;;9.07;52.19;100086.31;4973654;28;108075;-70
2021/03/14 00:16:07;;;;;;;8.70;1.80;;;;;;;9.06;52.14;100089.91;4976548;28;109016;-70
2021/03/14 00:18:40;;;;;;;6.45;1.63;;;;;;;9.06;51.90;100095.19;4974114;28;124067;-70
2021/03/14 00:21:08;;;;;;;5.72;1.80;;;;;;;9.05;51.86;100104.03;4972883;28;123793;-70
2021/03/14 00:23:35;;;;;;;7.80;2.00;;;;;;;9.04;52.15;100099.72;4974123;28;110090;-70
2021/03/14 00:26:02;;;;;;;7.57;1.98;;;;;;;9.06;52.22;100110.16;4976015;28;109780;-70
2021/03/14 00:28:29;;;;;;;10.10;2.17;;;;;;;9.06;52.45;100115.44;4973801;28;124285;-70
2021/03/14 00:30:56;;;;;;;6.47;1.80;;;;;;;9.09;52.36;100121.44;4975566;28;124159;-70
2021/03/14 00:33:23;;;;;;;8.02;2.10;;;;;;;9.10;52.35;100123.16;4974587;28;109620;-70
2021/03/14 00:35:50;;;;;;;9.02;2.03;;;;;;;9.13;52.67;100132.72;4975756;28;108504;-70
2021/03/14 00:38:17;;;;;;;10.95;2.10;;;;;;;9.14;52.46;100130.00;4975628;28;123983;-70
2021/03/14 00:40:44;;;;;;;9.02;1.98;;;;;;;9.16;52.61;100133.41;4975271;28;124018;-70
2021/03/14 00:43:13;;;;;;;8.10;2.20;;;;;;;9.19;52.51;100139.47;4975034;28;109596;-70
2021/03/14 00:45:40;;;;;;;9.27;1.98;;;;;;;9.21;52.51;100137.59;4975496;28;108962;-70
2021/03/14 00:48:27;;;;;;;13.70;2.10;;;;;;;9.23;52.51;100144.53;4949291;28;123288;-70
2021/03/14 00:50:55;;;;;;;11.88;2.33;;;;;;;9.26;52.64;100151.44;4974899;28;124081;-70
2021/03/14 00:53:30;;;;;;;11.02;2.20;;;;;;;9.28;52.71;100152.22;4958966;28;108989;-70
2021/03/14 00:55:59;;;;;;;12.77;2.10;;;;;;;9.29;52.56;100153.94;4989174;22;107979;-69
2021/03/14 00:58:25;;;;;;;9.38;2.03;;;;;;;9.32;52.55;100164.34;4974143;28;123483;-69
2021/03/14 01:00:53;;;;;;;8.73;2.33;;;;;;;9.33;52.79;100168.69;4974252;28;122831;-72
2021/03/14 01:03:20;;;;;;;9.02;1.70;;;;;;;9.36;52.71;100165.88;4973577;28;108384;-71
2021/03/14 01:05:47;;;;;;;11.20;2.00;;;;;;;9.38;52.79;100174.63;4974829;28;107987;-68
2021/03/14 01:08:18;;;;;;;9.82;2.28;;;;;;;9.41;52.61;100179.72;4973652;28;123174;-70
2021/03/14 01:10:46;;;;;;;11.02;2.30;;;;;;;9.42;52.90;100181.44;4954656;28;123562;-69
2021/03/14 01:13:24;;;;;;;11.15;1.80;;;;;;;9.42;52.75;100185.84;4971237;28;109302;-68
2021/03/14 01:15:52;;;;;;;7.22;1.80;;;;;;;9.44;52.61;100195.44;4972437;28;110135;-70
2021/03/14 01:18:18;;;;;;;11.48;1.60;;;;;;;9.45;52.42;100191.84;4972408;28;123576;-69
2021/03/14 01:20:45;;;;;;;10.00;1.63;;;;;;;9.45;52.53;100197.13;4972046;28;124352;-69
2021/03/14 01:23:12;;;;;;;8.73;2.20;;;;;;;9.45;52.82;100197.13;4971088;28;109504;-69
2021/03/14 01:25:38;;;;;;;5.18;1.60;;;;;;;9.44;52.46;100200.72;4972226;28;108713;-69
2021/03/14 01:28:05;;;;;;;7.95;1.80;;;;;;;9.44;52.68;100198.09;4973505;28;123177;-69
2021/03/14 01:30:32;;;;;;;11.57;2.13;;;;;;;9.43;52.53;100204.28;4973090;28;123484;-69
2021/03/14 01:32:58;;;;;;;10.13;1.83;;;;;;;9.43;52.54;100204.28;4975203;28;109272;-69
2021/03/14 01:35:25;;;;;;;6.72;2.08;;;;;;;9.43;52.63;100209.56;4976291;28;108995;-69
2021/03/14 01:37:52;;;;;;;9.20;1.85;;;;;;;9.44;52.74;100200.72;4968544;28;123379;-69
2021/03/14 01:40:19;;;;;;;8.43;1.92;;;;;;;9.46;52.71;100209.44;4946175;28;123837;-70
2021/03/14 01:42:46;;;;;;;9.30;2.22;;;;;;;9.46;52.38;100214.72;4972392;28;109702;-70
2021/03/14 01:45:14;;;;;;;11.43;2.45;;;;;;;9.45;52.50;100207.69;4975104;28;109187;-71
2021/03/14 01:47:43;;;;;;;13.93;2.30;;;;;;;9.46;52.53;100209.44;4973171;28;123982;-69
2021/03/14 01:50:24;;;;;;;7.25;1.80;;;;;;;9.44;52.60;100211.28;4973437;28;123041;-70
2021/03/14 01:52:52;;;;;;;12.48;2.60;;;;;;;9.44;52.84;100224.50;4973527;28;109559;-69
2021/03/14 01:55:22;;;;;;;7.57;2.33;;;;;;;9.45;52.68;100225.34;4974804;28;109351;-70
2021/03/14 01:57:49;;;;;;;9.82;2.53;;;;;;;9.45;53.05;100223.56;4969582;28;123564;-69
2021/03/14 02:00:22;;;;;;;8.43;2.50;;;;;;;9.44;52.83;100227.16;4973253;28;123051;-70
2021/03/14 02:02:49;;;;;;;8.38;2.55;;;;;;;9.44;52.85;100227.16;4966775;28;110141;-69
2021/03/14 02:05:18;;;;;;;10.35;2.58;;;;;;;9.43;53.08;100230.72;4969569;28;109615;-68
2021/03/14 02:07:49;;;;;;;11.07;3.05;;;;;;;9.42;53.00;100238.72;4971646;28;123977;-69
2021/03/14 02:10:20;;;;;;;11.95;3.20;;;;;;;9.39;53.32;100245.03;4970959;28;123975;-69
2021/03/14 02:12:55;;;;;;;8.05;2.85;;;;;;;9.36;53.36;100247.81;4973068;28;108414;-69
2021/03/14 02:15:22;;;;;;;10.60;3.22;;;;;;;9.33;53.17;100245.34;4973045;28;108015;-69
2021/03/14 02:17:51;;;;;;;11.38;3.55;;;;;;;9.29;53.46;100254.34;4972709;28;123282;-69
2021/03/14 02:20:23;;;;;;;9.07;3.22;;;;;;;9.27;53.06;100256.22;4972537;28;122277;-69
2021/03/14 02:22:56;;;;;;;9.70;3.25;;;;;;;9.24;53.55;100262.47;4972566;28;109007;-70
2021/03/14 02:25:33;;;;;;;18.40;3.60;;;;;;;9.22;53.13;100260.84;4972666;28;107554;-69
2021/03/14 02:28:00;;;;;;;13.38;3.65;;;;;;;9.19;53.50;100272.41;4972983;28;123377;-69
2021/03/14 02:30:27;;;;;;;11.32;3.70;;;;;;;9.18;53.80;100267.22;4973050;28;123894;-68
2021/03/14 02:32:54;;;;;;;12.77;3.70;;;;;;;9.13;53.63;100276.22;4973901;28;109558;-69
2021/03/14 02:35:21;;;;;;;13.45;3.55;;;;;;;9.10;53.63;100281.66;4973730;28;110546;-69
2021/03/14 02:37:49;;;;;;;12.10;3.80;;;;;;;9.08;53.80;100278.25;4953922;28;124869;-69
2021/03/14 02:40:18;;;;;;;12.88;3.47;;;;;;;9.04;54.23;100276.69;4954057;28;123064;-70
2021/03/14 02:42:46;;;;;;;12.25;4.13;;;;;;;9.02;54.03;100278.50;4970324;28;108183;-70
2021/03/14 02:45:14;;;;;;;13.75;3.65;;;;;;;9.00;53.95;100284.81;4973248;28;108855;-68
2021/03/14 02:47:41;;;;;;;16.02;4.00;;;;;;;8.99;54.02;100294.53;4972107;28;124234;-70
2021/03/14 02:50:16;;;;;;;14.30;4.18;;;;;;;8.98;54.05;100295.44;4973514;28;124673;-69
2021/03/14 02:52:45;;;;;;;12.50;4.35;;;;;;;8.96;54.12;100289.38;4970349;28;109071;-69
2021/03/14 02:55:14;;;;;;;13.68;4.50;;;;;;;8.95;54.44;100298.25;4962987;28;109884;-70
2021/03/14 02:57:43;;;;;;;12.32;4.13;;;;;;;8.92;54.12;100293.09;4953178;28;123429;-69
2021/03/14 03:00:18;;;;;;;12.63;4.10;;;;;;;8.89;54.54;100303.78;4972664;28;123541;-70
2021/03/14 03:02:47;;;;;;;13.77;4.13;;;;;;;8.89;54.22;100314.34;4969834;28;107439;-69
2021/03/14 03:05:17;;;;;;;16.92;3.88;;;;;;;8.87;54.13;100305.66;4962692;28;108133;-70
2021/03/14 03:07:49;;;;;;;13.48;3.47;;;;;;;8.85;54.38;100312.78;4940502;28;126577;-69
2021/03/14 03:10:17;;;;;;;14.65;3.40;;;;;;;8.84;54.29;100316.38;4971348;28;123584;-70
2021/03/14 03:12:48;;;;;;;11.48;3.50;;;;;;;8.82;54.55;100328.78;4973217;28;109597;-69
2021/03/14 03:15:20;;;;;;;13.98;3.58;;;;;;;8.80;54.41;100330.63;4972821;28;108502;-70
2021/03/14 03:17:48;;;;;;;15.40;3.50;;;;;;;8.77;54.39;100332.47;4972853;28;124131;-69
2021/03/14 03:20:24;;;;;;;15.02;3.67;;;;;;;8.76;54.38;100330.78;4972856;28;124054;-70
2021/03/14 03:22:51;;;;;;;12.38;3.30;;;;;;;8.75;54.37;100336.97;4969714;28;109545;-70
2021/03/14 03:25:19;;;;;;;10.48;3.05;;;;;;;8.73;54.49;100341.47;4961065;28;109522;-69
2021/03/14 03:27:46;;;;;;;12.68;3.10;;;;;;;8.71;54.60;100343.31;4976064;28;124042;-71
2021/03/14 03:30:15;;;;;;;7.47;3.00;;;;;;;8.70;54.42;100352.19;4975219;28;124266;-69
2021/03/14 03:32:45;;;;;;;13.15;3.22;;;;;;;8.70;54.57;100352.19;4977253;28;109178;-69
2021/03/14 03:35:15;;;;;;;10.07;3.20;;;;;;;8.70;54.67;100357.47;4977083;28;107791;-69
2021/03/14 03:37:42;;;;;;;10.80;3.08;;;;;;;8.71;54.74;100353.03;4975593;28;122946;-69
2021/03/14 03:40:11;;;;;;;18.33;3.40;;;;;;;8.73;54.42;100359.94;4978878;28;123660;-70
2021/03/14 03:42:52;;;;;;;11.07;3.28;;;;;;;8.73;54.63;100361.75;4961590;28;109908;-69
2021/03/14 03:45:21;;;;;;;13.73;3.20;;;;;;;8.71;54.50;100359.16;4970691;28;110377;-69
2021/03/14 03:47:49;;;;;;;15.57;3.25;;;;;;;8.71;54.58;100356.53;4965309;28;124051;-69
2021/03/14 03:50:16;;;;;;;17.13;3.35;;;;;;;8.71;54.95;100356.53;4978887;28;124103;-69
2021/03/14 03:52:46;;;;;;;12.63;3.10;;;;;;;8.71;54.72;100361.81;4977815;28;108700;-70
2021/03/14 03:55:14;;;;;;;9.23;3.22;;;;;;;8.70;54.75;100373.31;4976132;28;108025;-70
2021/03/14 03:57:42;;;;;;;14.75;3.13;;;;;;;8.70;54.89;100373.31;4975159;28;124628;-70
2021/03/14 04:00:13;;;;;;;14.10;3.30;;;;;;;8.70;55.00;100373.31;4975103;28;122821;-69
2021/03/14 04:02:41;;;;;;;17.52;3.92;;;;;;;8.71;54.52;100374.16;4973628;28;109442;-70
2021/03/14 04:05:11;;;;;;;14.95;3.47;;;;;;;8.71;54.97;100376.78;4976784;28;108441;-69
2021/03/14 04:07:41;;;;;;;12.70;3.38;;;;;;;8.70;54.86;100375.94;4976871;28;124500;-69
2021/03/14 04:10:11;;;;;;;15.00;3.22;;;;;;;8.70;54.96;100383.88;4971424;28;123217;-70
2021/03/14 04:12:41;;;;;;;13.55;3.90;;;;;;;8.70;55.08;100378.59;4981462;28;108323;-70
2021/03/14 04:15:09;;;;;;;13.57;3.88;;;;;;;8.70;54.49;100389.16;4976388;28;109284;-69
2021/03/14 04:17:38;;;;;;;11.60;4.18;;;;;;;8.69;55.15;100382.13;4974860;28;123576;-70
2021/03/14 04:20:10;;;;;;;12.68;3.78;;;;;;;8.69;54.78;100397.97;4945529;28;123862;-69
2021/03/14 04:22:41;;;;;;;13.65;3.95;;;;;;;8.66;54.60;100398.09;4975768;28;109650;-70
2021/03/14 04:25:08;;;;;;;16.42;3.97;;;;;;;8.65;54.92;100401.69;4973957;28;108852;-69
2021/03/14 04:27:36;;;;;;;14.30;3.92;;;;;;;8.64;55.05;100399.09;4966447;28;122957;-69
2021/03/14 04:30:04;;;;;;;10.48;3.83;;;;;;;8.62;55.00;100403.59;4956019;28;123831;-69
2021/03/14 04:32:31;;;;;;;13.70;4.18;;;;;;;8.61;54.88;100408.03;4974708;28;110235;-69
2021/03/14 04:34:59;;;;;;;12.80;3.97;;;;;;;8.58;54.77;100408.16;4961620;28;110219;-69
2021/03/14 04:37:25;;;;;;;11.95;3.35;;;;;;;8.56;55.10;100412.66;4973955;28;123352;-69
2021/03/14 04:39:54;;;;;;;13.77;3.97;;;;;;;8.55;55.16;100416.19;4975579;28;124016;-71
2021/03/14 04:42:23;;;;;;;11.13;3.97;;;;;;;8.53;54.91;100418.03;4974357;28;108580;-69
2021/03/14 04:44:51;;;;;;;12.23;3.65;;;;;;;8.50;55.20;100423.47;4975148;28;108806;-69
2021/03/14 04:47:18;;;;;;;13.55;4.25;;;;;;;8.49;55.17;100424.38;4960844;28;124200;-70
2021/03/14 04:49:45;;;;;;;15.82;4.45;;;;;;;8.47;55.08;100424.44;4965437;28;123527;-70
2021/03/14 04:52:17;;;;;;;12.88;4.03;;;;;;;8.47;55.01;100434.16;4971657;28;109039;-69
2021/03/14 04:54:45;;;;;;;11.77;4.03;;;;;;;8.46;54.96;100437.75;4973084;28;107937;-69
2021/03/14 04:57:12;;;;;;;14.23;4.10;;;;;;;8.44;54.97;100439.56;4973388;28;124755;-69
2021/03/14 04:59:39;;;;;;;14.32;4.35;;;;;;;8.44;55.32;100442.19;4974996;28;124042;-69
2021/03/14 05:02:06;;;;;;;12.85;4.50;;;;;;;8.43;55.31;100443.13;4974647;28;109091;-69
2021/03/14 05:04:34;;;;;;;13.20;3.85;;;;;;;8.39;54.87;100448.50;4970021;28;108967;-69
2021/03/14 05:07:01;;;;;;;13.38;3.85;;;;;;;8.37;55.10;100455.63;4967342;28;123773;-69
2021/03/14 05:09:28;;;;;;;14.05;4.10;;;;;;;8.34;55.10;100461.06;4974677;28;124181;-70
2021/03/14 05:11:55;;;;;;;14.15;4.20;;;;;;;8.33;55.29;100469.88;4975512;28;109052;-69
2021/03/14 05:14:23;;;;;;;10.10;3.72;;;;;;;8.30;55.25;100472.63;4973686;28;109700;-69
2021/03/14 05:16:49;;;;;;;16.58;4.30;;;;;;;8.29;55.41;100473.56;4975345;28;123144;-69
2021/03/14 05:19:17;;;;;;;11.02;4.15;;;;;;;8.28;55.40;100476.25;4975838;28;124694;-69
2021/03/14 05:21:56;;;;;;;13.85;3.90;;;;;;;8.27;55.27;100491.25;4969090;28;110350;-70
2021/03/14 05:24:24;;;;;;;12.23;3.90;;;;;;;8.27;55.29;100491.25;4963574;28;109452;-70
2021/03/14 05:26:50;;;;;;;10.52;3.60;;;;;;;8.27;55.81;100499.16;4960051;28;123976;-70
2021/03/14 05:29:17;;;;;;;14.27;4.20;;;;;;;8.28;55.65;100498.22;4971439;28;124120;-70
2021/03/14 05:31:44;;;;;;;14.18;4.00;;;;;;;8.29;55.48;100499.09;4972317;28;108885;-69
2021/03/14 05:34:17;;;;;;;13.65;3.53;;;;;;;8.30;55.78;100506.06;4973554;28;109161;-69
2021/03/14 05:36:45;;;;;;;14.80;3.55;;;;;;;8.29;55.34;100518.41;4974756;28;126274;-70
2021/03/14 05:39:14;;;;;;;12.30;3.45;;;;;;;8.30;55.75;100516.63;4975235;28;124477;-70
2021/03/14 05:41:41;;;;;;;14.25;4.00;;;;;;;8.30;55.53;100521.91;4974338;28;109251;-70
2021/03/14 05:44:10;;;;;;;11.10;3.58;;;;;;;8.31;55.90;100523.63;4956504;28;109078;-69
2021/03/14 05:46:37;;;;;;;14.77;3.92;;;;;;;8.31;55.50;100524.50;4974228;28;124457;-70
2021/03/14 05:49:05;;;;;;;9.18;2.97;;;;;;;8.32;55.97;100536.75;4973882;28;123744;-70
2021/03/14 05:51:44;;;;;;;12.70;3.88;;;;;;;8.33;55.88;100533.19;4974723;28;109573;-69
2021/03/14 05:54:16;;;;;;;11.48;3.85;;;;;;;8.34;55.61;100534.94;4972830;28;108064;-68
2021/03/14 05:56:48;;;;;;;11.45;4.00;;;;;;;8.34;56.07;100545.47;4972977;28;123841;-68
2021/03/14 05:59:17;;;;;;;13.63;3.80;;;;;;;8.34;56.08;100545.47;4970366;28;123903;-68
2021/03/14 06:01:49;;;;;;;13.43;3.83;;;;;;;8.34;56.32;100545.47;4974718;28;109305;-69
2021/03/14 06:04:17;;;;;;;12.48;3.92;;;;;;;8.35;56.20;100547.19;4972252;28;108377;-69
2021/03/14 06:06:46;;;;;;;14.70;3.70;;;;;;;8.33;56.30;100549.03;4974102;28;124051;-69
2021/03/14 06:09:15;;;;;;;14.00;3.78;;;;;;;8.35;56.12;100557.75;4972043;28;123941;-69
2021/03/14 06:11:42;;;;;;;12.18;4.05;;;;;;;8.35;56.26;100557.75;4968904;28;109231;-69
2021/03/14 06:14:09;;;;;;;14.40;4.47;;;;;;;8.35;56.46;100562.16;4957687;28;112093;-68
2021/03/14 06:16:36;;;;;;;8.65;3.95;;;;;;;8.36;56.83;100570.03;4971035;28;124153;-68
2021/03/14 06:19:03;;;;;;;10.93;4.18;;;;;;;8.36;56.71;100564.75;4957613;28;123940;-69
2021/03/14 06:21:31;;;;;;;11.25;4.28;;;;;;;8.36;56.56;100575.31;4968958;28;109405;-68
2021/03/14 06:24:09;;;;;;;13.40;4.20;;;;;;;8.38;56.86;100584.00;4962361;28;108493;-70
2021/03/14 06:26:44;;;;;;;10.80;4.10;;;;;;;8.36;56.60;100585.84;4963590;28;124469;-69
2021/03/14 06:29:16;;;;;;;9.57;4.53;;;;;;;8.36;56.74;100596.41;4966946;28;123747;-70
2021/03/14 06:31:48;;;;;;;13.07;4.47;;;;;;;8.35;56.92;100594.69;4970076;28;109475;-68
2021/03/14 06:34:35;;;;;;;13.15;4.70;;;;;;;8.33;56.90;100604.44;4962651;28;108761;-68
2021/03/14 06:37:14;;;;;;;11.55;4.53;;;;;;;8.31;56.96;100608.91;4970995;28;123474;-68
2021/03/14 06:39:46;;;;;;;12.30;4.80;;;;;;;8.31;57.36;100611.56;4963106;28;122669;-68
2021/03/14 06:42:32;;;;;;;12.93;4.78;;;;;;;8.27;57.31;100623.16;4972682;28;108742;-68
2021/03/14 06:45:07;;;;;;;12.70;5.50;;;;;;;8.26;57.60;100616.16;4965401;28;108565;-68
2021/03/14 06:47:48;;;;;;;17.83;5.47;;;;;;;8.25;57.54;100627.63;4964591;28;123857;-68
2021/03/14 06:50:37;;;;;;;15.32;5.55;;;;;;;8.23;57.71;100621.56;4968164;28;123433;-68
2021/03/14 06:53:13;;;;;;;13.32;5.80;;;;;;;8.23;57.57;100629.47;4968162;28;108350;-68
2021/03/14 06:55:41;;;;;;;12.73;4.90;;;;;;;8.24;57.45;100633.81;4960107;28;108949;-71
2021/03/14 06:58:26;;;;;;;9.80;4.90;;;;;;;8.23;57.56;100632.13;5004396;22;124021;-74
2021/03/14 07:01:10;;;;;;;10.00;4.78;;;;;;;8.22;57.56;100640.94;4985514;28;123826;-74
2021/03/14 07:03:41;;;;;;;10.80;4.63;;;;;;;8.22;57.84;100646.22;4983081;28;110274;-74
2021/03/14 07:06:21;;;;;;;12.30;4.93;;;;;;;8.21;57.91;100639.19;5006704;28;110011;-74
2021/03/14 07:08:53;;;;;;;11.15;5.35;;;;;;;8.22;57.87;100651.50;4994654;28;124223;-73
2021/03/14 07:11:33;;;;;;;14.35;4.90;;;;;;;8.23;58.42;100663.78;4963754;28;123345;-74
2021/03/14 07:14:00;;;;;;;10.43;4.47;;;;;;;8.25;58.01;100669.84;4985433;28;109526;-74
2021/03/14 07:16:44;;;;;;;13.20;4.78;;;;;;;8.25;57.95;100672.50;4972536;28;107728;-74
2021/03/14 07:19:25;;;;;;;10.35;4.35;;;;;;;8.26;58.12;100673.34;4972425;28;123824;-75
2021/03/14 07:22:25;;;;;;;9.18;4.38;;;;;;;8.25;58.28;100685.69;4975532;28;123834;-75
2021/03/14 07:24:52;;;;;;;7.75;4.05;;;;;;;8.27;58.08;100681.22;4924159;28;108292;-73
2021/03/14 07:27:29;;;;;;;9.77;4.40;;;;;;;8.27;58.17;100680.31;4969689;28;108717;-74
2021/03/14 07:29:57;;;;;;;10.50;4.68;;;;;;;8.29;58.64;100689.91;4961185;28;124342;-73
2021/03/14 07:32:25;;;;;;;9.48;4.28;;;;;;;8.32;58.52;100689.78;4976302;28;122745;-74
2021/03/14 07:34:53;;;;;;;12.80;4.50;;;;;;;8.34;58.61;100693.25;4962354;28;108116;-74
2021/03/14 07:37:20;;;;;;;9.20;4.25;;;;;;;8.36;58.67;100696.69;4973507;28;108103;-73
2021/03/14 07:39:48;;;;;;;12.65;4.70;;;;;;;8.38;58.62;100700.13;4977249;28;124140;-76
2021/03/14 07:42:23;;;;;;;11.48;4.47;;;;;;;8.41;58.66;100698.28;4968378;28;123668;-74
2021/03/14 07:44:50;;;;;;;9.23;4.18;;;;;;;8.43;58.67;100704.41;4965409;28;109584;-74
2021/03/14 07:47:20;;;;;;;8.85;3.97;;;;;;;8.45;58.72;100707.84;4977594;28;108113;-75
2021/03/14 07:49:52;;;;;;;8.38;4.22;;;;;;;8.47;58.71;100719.19;4965928;28;125363;-74
2021/03/14 07:52:25;;;;;;;9.30;4.43;;;;;;;8.49;58.73;100712.06;4976194;28;124079;-74
2021/03/14 07:55:02;;;;;;;11.63;4.55;;;;;;;8.51;59.05;100720.78;4979814;28;110512;-74
2021/03/14 07:57:29;;;;;;;12.50;4.53;;;;;;;8.55;59.05;100722.38;4966000;28;110764;-75
2021/03/14 07:59:56;;;;;;;9.57;4.57;;;;;;;8.57;59.08;100725.84;4971275;28;123819;-74
2021/03/14 08:02:28;;;;;;;11.68;4.55;;;;;;;8.61;59.18;100738.00;4968585;28;123712;-74
2021/03/14 08:04:58;;;;;;;7.82;4.45;;;;;;;8.61;58.93;100743.28;4962696;28;109162;-74
2021/03/14 08:07:33;;;;;;;9.52;4.70;;;;;;;8.63;59.13;100749.38;4956785;28;108128;-75
2021/03/14 08:10:04;;;;;;;15.02;5.20;;;;;;;8.67;58.96;100760.66;4964811;28;123686;-75
2021/03/14 08:12:41;;;;;;;9.55;5.45;;;;;;;8.67;59.06;100758.88;4971675;28;124406;-74
2021/03/14 08:15:23;;;;;;;11.77;5.40;;;;;;;8.66;59.25;100778.28;4964412;28;108655;-75
2021/03/14 08:17:53;;;;;;;11.27;5.68;;;;;;;8.68;58.88;100781.75;4977963;28;108563;-74
2021/03/14 08:20:41;;;;;;;11.02;6.07;;;;;;;8.69;59.04;100788.72;4959626;28;124768;-75
2021/03/14 08:23:10;;;;;;;10.25;6.32;;;;;;;8.69;59.18;100794.00;4963126;28;123105;-74
2021/03/14 08:25:49;;;;;;;12.10;6.05;;;;;;;8.70;59.18;100806.31;4972092;28;108475;-75
2021/03/14 08:28:24;;;;;;;12.85;6.18;;;;;;;8.70;59.40;100806.31;4972107;28;108299;-76
2021/03/14 08:31:07;;;;;;;11.75;6.47;;;;;;;8.69;59.20;100804.56;4974339;28;123514;-76
2021/03/14 08:33:40;;;;;;;;;;;;;;;8.70;59.09;100808.94;4974412;28;122721;-77
2021/03/14 08:36:15;;;;;;;10.13;5.93;;;;;;;8.73;58.97;100811.44;4985670;28;108650;-76
2021/03/14 08:38:53;;;;;;;9.57;6.05;;;;;;;8.73;59.29;100806.16;4972462;28;107597;-79
2021/03/14 08:41:28;;;;;;;16.30;6.47;;;;;;;8.79;59.65;100809.50;4986152;28;123470;-77
2021/03/14 08:44:05;;;;;;;10.63;6.28;;;;;;;8.83;59.53;100816.38;4973947;28;124369;-76
2021/03/14 08:46:46;;;;;;;;;;;;;;;8.85;59.26;100819.81;4973820;28;110075;-77
2021/03/14 08:49:16;;;;;;;11.60;5.90;;;;;;;8.92;59.38;100816.03;4970980;28;109802;-77
2021/03/14 08:51:44;;;;;;;12.23;5.90;;;;;;;8.97;59.40;100824.66;4976351;28;123191;-77
2021/03/14 08:54:56;;;;;;;10.95;6.45;;;;;;;9.02;59.81;100827.94;4977533;28;123099;-77
2021/03/14 08:57:26;;;;;;;10.68;6.50;;;;;;;9.09;59.99;100829.44;4960858;28;108020;-77
2021/03/14 08:59:58;;;;;;;13.27;6.88;;;;;;;9.15;59.94;100834.50;4956662;28;108426;-77
2021/03/14 09:02:35;;;;;;;15.73;7.80;;;;;;;9.21;60.23;100827.22;4957367;28;124345;-77
2021/03/14 09:05:20;;;;;;;14.43;7.60;;;;;;;9.30;60.18;100832.16;4961996;28;122960;-77
2021/03/14 09:08:00;;;;;;;14.77;8.18;;;;;;;9.37;59.99;100833.63;4970683;28;109654;-77
2021/03/14 09:10:34;;;;;;;18.23;8.98;;;;;;;9.47;60.06;100834.13;4956407;28;108616;-77
2021/03/14 09:13:28;;;;;;;14.35;7.97;;;;;;;9.53;60.10;100834.75;4963516;28;123740;-77
2021/03/14 09:16:06;;;;;;;14.45;8.65;;;;;;;9.62;59.84;100853.78;4972348;28;123017;-77
2021/03/14 09:18:48;;;;;;;17.13;8.50;;;;;;;9.68;60.19;100848.25;4967490;28;108322;-77
2021/03/14 09:21:16;;;;;;;12.55;8.10;;;;;;;9.77;60.27;100849.66;4952707;28;109043;-77
2021/03/14 09:23:47;;;;;;;11.95;8.13;;;;;;;9.88;60.25;100839.47;4972147;28;123196;-77
2021/03/14 09:26:29;;;;;;;13.68;7.82;;;;;;;10.00;60.49;100857.50;4968014;28;124374;-77
2021/03/14 09:29:03;;;;;;;16.60;7.78;;;;;;;10.14;60.36;100856.91;4972299;28;108402;-77
2021/03/14 09:31:31;;;;;;;12.77;7.15;;;;;;;10.22;60.46;100860.06;4964852;28;108503;-77
2021/03/14 09:34:07;;;;;;;;;;;;;;;10.27;59.80;100870.47;4965193;28;124109;-77
2021/03/14 09:36:49;;;;;;;12.82;7.03;;;;;;;10.32;59.64;100866.72;4973493;28;123640;-77
2021/03/14 09:39:24;;;;;;;12.85;7.07;;;;;;;10.34;59.61;100869.31;4966098;28;109460;-77
2021/03/14 09:42:04;;;;;;;13.45;7.47;;;;;;;10.35;59.64;100875.47;4956277;28;109690;-77
2021/03/14 09:45:09;;;;;;;15.73;6.97;;;;;;;10.35;59.14;100873.66;4964709;28;125627;-77
2021/03/14 09:48:03;;;;;;;16.35;7.13;;;;;;;10.38;59.47;100870.00;4977933;28;122882;-77
2021/03/14 09:50:54;;;;;;;13.68;7.50;;;;;;;10.40;59.19;100878.78;4977726;28;108063;-77
2021/03/14 09:53:32;;;;;;;15.80;7.93;;;;;;;10.39;59.34;100882.34;4956142;28;108753;-77
2021/03/14 09:56:03;;;;;;;14.00;7.75;;;;;;;10.43;59.33;100889.22;4972425;28;123370;-76
2021/03/14 09:58:50;;;;;;;18.08;7.93;;;;;;;10.45;59.38;100892.66;4960219;28;124129;-76
2021/03/14 10:01:18;;;;;;;13.25;7.55;;;;;;;10.48;59.49;100893.38;4954060;28;108406;-77
2021/03/14 10:03:57;;;;;;;19.30;8.40;;;;;;;10.53;59.66;100895.84;4973764;28;108263;-76
2021/03/14 10:06:43;;;;;;;12.90;7.28;;;;;;;10.59;59.47;100905.31;4972052;28;123170;-76
2021/03/14 10:09:23;;;;;;;13.88;8.43;;;;;;;10.62;59.71;100911.28;4974454;28;122074;-75
2021/03/14 10:11:56;;;;;;;16.17;8.18;;;;;;;10.69;59.53;100907.44;4973970;28;108542;-76
2021/03/14 10:14:28;;;;;;;12.30;7.82;;;;;;;10.77;59.65;100908.91;4967999;28;108741;-76
2021/03/14 10:16:55;;;;;;;14.88;8.20;;;;;;;10.82;59.41;100901.63;4954315;28;123252;-75
2021/03/14 10:19:22;;;;;;;16.45;7.78;;;;;;;10.88;59.66;100911.94;4963882;28;123144;-76
2021/03/14 10:21:48;;;;;;;13.63;7.30;;;;;;;10.97;59.53;100916.81;4974809;28;109087;-76
2021/03/14 10:24:44;;;;;;;15.55;6.90;;;;;;;11.06;59.12;100916.41;4964682;28;109007;-76
2021/03/14 10:27:21;;;;;;;11.80;6.35;;;;;;;11.13;59.30;100921.41;4973605;28;124042;-76
2021/03/14 10:30:11;;;;;;;10.90;6.47;;;;;;;11.16;59.11;100915.97;4964040;28;122773;-76
2021/03/14 10:32:49;;;;;;;10.35;5.53;;;;;;;11.20;58.75;100921.06;4973051;28;109952;-76
2021/03/14 10:35:23;;;;;;;8.88;4.85;;;;;;;11.22;58.56;100927.16;4951360;28;109420;-75
2021/03/14 10:37:55;;;;;;;11.18;5.60;;;;;;;11.23;58.33;100933.31;4971966;28;123233;-75
2021/03/14 10:40:26;;;;;;;12.20;5.80;;;;;;;11.25;58.47;100936.78;4974821;28;123208;-77
2021/03/14 10:43:16;;;;;;;10.43;5.78;;;;;;;11.25;58.46;100942.06;4975166;28;108468;-76
2021/03/14 10:45:46;;;;;;;11.70;6.20;;;;;;;11.27;58.55;100946.34;4977816;28;108535;-75
2021/03/14 10:48:18;;;;;;;10.07;5.15;;;;;;;11.27;58.21;100950.81;4969417;28;123145;-76
2021/03/14 10:50:47;;;;;;;10.18;3.90;;;;;;;11.25;57.95;100955.31;4958462;28;123112;-76
2021/03/14 10:53:20;;;;;;;4.78;2.95;;;;;;;11.19;57.85;100958.22;4972951;28;108734;-77
2021/03/14 10:56:12;;;;;;;4.15;2.00;;;;;;;11.09;57.28;100974.59;4972113;28;108685;-76
2021/03/14 10:58:45;;;;;;;4.70;2.22;;;;;;;10.91;57.18;100965.66;4977110;28;123639;-76
2021/03/14 11:01:40;;;;;;;4.32;1.73;;;;;;;10.74;56.74;100972.63;4971400;28;123452;-77
2021/03/14 11:04:08;;;;;;;1.98;1.40;;;;;;;10.61;57.17;100973.16;4976062;28;108930;-77
2021/03/14 11:06:42;;;;;;;2.42;1.30;;;;;;;10.51;57.37;100971.84;4983855;28;108280;-77
2021/03/14 11:09:21;;;;;;;3.47;1.25;;;;;;;10.44;57.37;100959.78;4973642;28;124042;-77
2021/03/14 11:11:51;;;;;;;3.58;1.30;;;;;;;10.40;57.78;100963.50;4980964;28;122807;-78
2021/03/14 11:14:24;;;;;;;1.95;1.10;;;;;;;10.37;57.96;100971.56;4986983;28;107838;-77
2021/03/14 11:17:19;;;;;;;6.20;1.58;;;;;;;10.37;58.30;100974.22;4973082;28;109634;-78
2021/03/14 11:20:07;;;;;;;3.45;1.42;;;;;;;10.41;58.50;100978.44;4973656;28;125299;-79
2021/03/14 11:22:41;;;;;;;6.13;2.28;;;;;;;10.48;58.86;100977.25;4983295;28;123331;-79
2021/03/14 11:25:12;;;;;;;6.68;2.22;;;;;;;10.57;59.29;100987.47;4995064;28;109854;-78
2021/03/14 11:27:39;;;;;;;7.00;2.40;;;;;;;10.65;59.22;100980.03;4989878;28;108156;-78
2021/03/14 11:30:08;;;;;;;6.75;2.55;;;;;;;10.76;59.54;100984.03;4980139;28;123995;-77
2021/03/14 11:32:37;;;;;;;6.43;2.40;;;;;;;10.87;59.64;100981.78;4958800;28;123131;-77
2021/03/14 11:35:21;;;;;;;6.30;2.63;;;;;;;10.97;59.71;100985.72;4985894;28;109706;-77
2021/03/14 11:38:12;;;;;;;7.05;2.75;;;;;;;11.07;59.49;100987.03;4993037;28;108745;-77
2021/03/14 11:40:38;;;;;;;6.40;3.17;;;;;;;11.18;59.75;100993.66;5012685;28;124009;-78
2021/03/14 11:43:28;;;;;;;8.25;3.72;;;;;;;11.30;59.31;100987.75;4999451;28;124196;-78